createdAt,value
2022-12-29T00:00:12.877Z,11.40
2022-12-29T00:02:40.237Z,11.40
2022-12-29T00:05:08.800Z,11.40
2022-12-29T00:07:38.971Z,11.40
2022-12-29T00:10:06.596Z,11.50
2022-12-29T00:12:53.588Z,11.50
2022-12-29T00:15:39.908Z,11.60
2022-12-29T00:18:08.018Z,11.50
2022-12-29T00:20:55.392Z,11.50
2022-12-29T00:23:41.967Z,11.50
2022-12-29T00:26:35.764Z,11.60
2022-12-29T00:29:21.730Z,11.70
2022-12-29T00:32:07.326Z,11.70
2022-12-29T00:35:06.443Z,11.70
2022-12-29T00:37:51.975Z,11.70
2022-12-29T00:40:38.601Z,11.80
2022-12-29T00:43:24.332Z,11.80
2022-12-29T00:45:51.136Z,11.70
2022-12-29T00:48:41.181Z,11.70
2022-12-29T00:51:09.040Z,11.80
2022-12-29T00:53:36.089Z,11.80
2022-12-29T00:56:03.099Z,11.70
2022-12-29T00:58:31.291Z,11.60
2022-12-29T01:01:08.727Z,11.50
2022-12-29T01:03:38.778Z,11.40
2022-12-29T01:06:08.013Z,11.30
2022-12-29T01:08:36.701Z,11.20
2022-12-29T01:11:11.013Z,11.20
2022-12-29T01:13:44.674Z,11.10
2022-12-29T01:16:14.690Z,11.00
2022-12-29T01:18:44.031Z,11.00
2022-12-29T01:21:12.072Z,11.00
2022-12-29T01:23:39.908Z,11.00
2022-12-29T01:26:17.845Z,11.00
2022-12-29T01:28:46.354Z,11.00
2022-12-29T01:31:14.961Z,10.90
2022-12-29T01:33:43.085Z,11.00
2022-12-29T01:36:12.870Z,11.00
2022-12-29T01:38:40.129Z,11.00
2022-12-29T01:41:08.899Z,11.00
2022-12-29T01:43:52.955Z,10.90
2022-12-29T01:46:37.758Z,10.90
2022-12-29T01:49:25.513Z,10.80
2022-12-29T01:51:57.185Z,10.60
2022-12-29T01:54:36.475Z,10.50
2022-12-29T01:57:09.087Z,10.50
2022-12-29T01:59:43.056Z,10.40
2022-12-29T02:02:15.972Z,10.30
2022-12-29T02:04:51.302Z,10.40
2022-12-29T02:07:25.864Z,10.30
2022-12-29T02:09:55.247Z,10.20
2022-12-29T02:12:24.513Z,10.30
2022-12-29T02:14:56.193Z,10.20
2022-12-29T02:17:44.886Z,10.20
2022-12-29T02:20:59.725Z,10.30
2022-12-29T02:23:45.104Z,10.40
2022-12-29T02:26:30.333Z,10.30
2022-12-29T02:29:15.473Z,10.40
2022-12-29T02:32:04.343Z,10.40
2022-12-29T02:34:51.920Z,10.20
2022-12-29T02:37:36.036Z,10.20
2022-12-29T02:40:39.056Z,10.10
2022-12-29T02:43:35.456Z,10.00
2022-12-29T02:46:17.642Z,9.90
2022-12-29T02:49:02.321Z,9.90
2022-12-29T02:51:47.640Z,9.90
2022-12-29T02:54:35.951Z,9.90
2022-12-29T02:57:02.857Z,9.90
2022-12-29T02:59:29.868Z,9.80
2022-12-29T03:02:17.991Z,9.80
2022-12-29T03:05:05.029Z,9.90
2022-12-29T03:08:18.310Z,10.00
2022-12-29T03:11:02.052Z,10.10
2022-12-29T03:14:11.674Z,10.20
2022-12-29T03:16:52.893Z,10.10
2022-12-29T03:19:26.774Z,10.10
2022-12-29T03:22:20.344Z,10.20
2022-12-29T03:24:52.938Z,10.20
2022-12-29T03:27:30.012Z,10.20
2022-12-29T03:30:13.197Z,10.10
2022-12-29T03:32:56.513Z,10.10
2022-12-29T03:35:28.260Z,10.10
2022-12-29T03:38:26.395Z,10.00
2022-12-29T03:40:59.613Z,10.00
2022-12-29T03:43:35.819Z,9.90
2022-12-29T03:46:03.909Z,9.80
2022-12-29T03:48:36.595Z,9.80
2022-12-29T03:51:04.605Z,9.70
2022-12-29T03:53:32.425Z,9.70
2022-12-29T03:56:02.356Z,9.70
2022-12-29T03:58:29.326Z,9.70
2022-12-29T04:00:55.979Z,9.70
2022-12-29T04:03:35.767Z,9.70
2022-12-29T04:06:05.673Z,9.70
2022-12-29T04:08:32.300Z,9.70
2022-12-29T04:11:07.150Z,9.70
2022-12-29T04:13:36.196Z,9.60
2022-12-29T04:16:04.303Z,9.70
2022-12-29T04:18:34.380Z,9.70
2022-12-29T04:21:06.381Z,9.80
2022-12-29T04:23:39.048Z,9.80
2022-12-29T04:26:10.211Z,9.80
2022-12-29T04:28:40.341Z,9.80
2022-12-29T04:31:07.163Z,9.80
2022-12-29T04:33:36.324Z,9.80
2022-12-29T04:36:03.849Z,9.80
2022-12-29T04:38:41.871Z,9.90
2022-12-29T04:41:11.823Z,10.00
2022-12-29T04:43:39.685Z,10.10
2022-12-29T04:46:07.803Z,10.20
2022-12-29T04:48:34.728Z,10.20
2022-12-29T04:51:01.644Z,10.20
2022-12-29T04:53:29.607Z,10.30
2022-12-29T04:55:58.644Z,10.30
2022-12-29T04:58:25.682Z,10.30
2022-12-29T05:00:52.744Z,10.30
2022-12-29T05:03:20.930Z,10.30
2022-12-29T05:05:57.857Z,10.40
2022-12-29T05:08:28.330Z,10.40
2022-12-29T05:10:55.648Z,10.40
2022-12-29T05:13:25.550Z,10.40
2022-12-29T05:15:53.117Z,10.40
2022-12-29T05:18:20.463Z,10.50
2022-12-29T05:20:47.910Z,10.50
2022-12-29T05:23:17.107Z,10.50
2022-12-29T05:25:50.581Z,10.60
2022-12-29T05:28:20.564Z,10.60
2022-12-29T05:30:52.562Z,10.60
2022-12-29T05:33:20.420Z,10.50
2022-12-29T05:35:47.444Z,10.40
2022-12-29T05:38:14.530Z,10.40
2022-12-29T05:40:42.387Z,10.40
2022-12-29T05:43:10.194Z,10.30
2022-12-29T05:45:37.231Z,10.30
2022-12-29T05:48:04.748Z,10.30
2022-12-29T05:50:32.642Z,10.30
2022-12-29T05:53:00.418Z,10.40
2022-12-29T05:55:30.293Z,10.30
2022-12-29T05:57:57.528Z,10.30
2022-12-29T06:00:24.335Z,10.30
2022-12-29T06:02:52.559Z,10.20
2022-12-29T06:05:21.451Z,10.10
2022-12-29T06:07:56.696Z,10.10
2022-12-29T06:10:24.714Z,10.10
2022-12-29T06:12:59.750Z,10.10
2022-12-29T06:15:27.654Z,10.10
2022-12-29T06:17:55.482Z,10.20
2022-12-29T06:20:35.753Z,10.20
2022-12-29T06:23:02.803Z,10.40
2022-12-29T06:25:34.395Z,10.40
2022-12-29T06:28:01.443Z,10.50
2022-12-29T06:30:28.083Z,10.50
2022-12-29T06:33:02.056Z,10.50
2022-12-29T06:35:29.203Z,10.50
2022-12-29T06:37:58.905Z,10.50
2022-12-29T06:40:25.604Z,10.50
2022-12-29T06:42:58.762Z,10.50
2022-12-29T06:45:25.795Z,10.50
2022-12-29T06:47:52.867Z,10.40
2022-12-29T06:50:19.935Z,10.40
2022-12-29T06:52:53.087Z,10.40
2022-12-29T06:55:20.176Z,10.40
2022-12-29T06:58:02.131Z,10.40
2022-12-29T07:00:28.995Z,10.30
2022-12-29T07:02:57.327Z,10.20
2022-12-29T07:05:55.398Z,10.30
2022-12-29T07:08:22.299Z,10.30
2022-12-29T07:11:08.331Z,10.40
2022-12-29T07:13:36.272Z,10.50
2022-12-29T07:16:10.810Z,10.50
2022-12-29T07:18:44.161Z,10.50
2022-12-29T07:21:11.529Z,10.50
2022-12-29T07:23:38.570Z,10.30
2022-12-29T07:26:14.248Z,10.40
2022-12-29T07:28:48.368Z,10.40
2022-12-29T07:31:19.010Z,10.50
2022-12-29T07:33:48.717Z,10.50
2022-12-29T07:36:17.051Z,10.60
2022-12-29T07:38:44.289Z,10.50
2022-12-29T07:41:13.009Z,10.60
2022-12-29T07:43:40.884Z,10.50
2022-12-29T07:46:14.583Z,10.60
2022-12-29T07:49:06.851Z,10.60
2022-12-29T07:51:35.977Z,10.60
2022-12-29T07:54:03.037Z,10.50
2022-12-29T07:56:32.849Z,10.60
2022-12-29T07:59:00.829Z,10.60
2022-12-29T08:01:27.875Z,10.50
2022-12-29T08:03:57.512Z,10.60
2022-12-29T08:06:24.967Z,10.60
2022-12-29T08:08:53.101Z,10.50
2022-12-29T08:11:19.818Z,10.50
2022-12-29T08:13:53.861Z,10.50
2022-12-29T08:16:20.796Z,10.50
2022-12-29T08:18:47.931Z,10.50
2022-12-29T08:21:14.875Z,10.50
2022-12-29T08:23:44.722Z,10.50
2022-12-29T08:26:12.033Z,10.50
2022-12-29T08:28:40.478Z,10.60
2022-12-29T08:31:08.366Z,10.50
2022-12-29T08:33:37.473Z,10.50
2022-12-29T08:36:08.071Z,10.50
2022-12-29T08:38:34.995Z,10.50
2022-12-29T08:41:02.416Z,10.50
2022-12-29T08:43:30.654Z,10.50
2022-12-29T08:45:59.024Z,10.60
2022-12-29T08:48:26.541Z,10.60
2022-12-29T08:50:59.086Z,10.60
2022-12-29T08:53:26.145Z,10.50
2022-12-29T08:56:04.990Z,10.60
2022-12-29T08:58:33.564Z,10.70
2022-12-29T09:01:00.614Z,10.70
2022-12-29T09:06:16.310Z,10.90
2022-12-29T09:08:44.581Z,10.90
2022-12-29T09:11:17.691Z,10.90
2022-12-29T09:13:47.902Z,11.00
2022-12-29T09:16:15.129Z,11.00
2022-12-29T09:18:43.929Z,11.10
2022-12-29T09:21:12.189Z,11.20
2022-12-29T09:23:39.997Z,11.20
2022-12-29T09:26:09.606Z,11.30
2022-12-29T09:28:36.500Z,11.30
2022-12-29T09:31:41.563Z,11.30
2022-12-29T09:34:09.440Z,11.10
2022-12-29T09:36:45.454Z,11.00
2022-12-29T09:39:22.590Z,10.90
2022-12-29T09:41:53.379Z,10.90
2022-12-29T09:45:16.273Z,11.00
2022-12-29T09:47:45.883Z,11.00
2022-12-29T09:50:40.357Z,11.10
2022-12-29T09:53:17.566Z,11.00
2022-12-29T09:55:52.384Z,11.10
2022-12-29T09:58:36.968Z,11.20
2022-12-29T10:01:39.167Z,11.40
2022-12-29T10:04:12.102Z,11.30
2022-12-29T10:07:28.695Z,11.30
2022-12-29T10:10:34.205Z,11.50
2022-12-29T10:13:11.071Z,11.90
2022-12-29T10:16:17.448Z,11.70
2022-12-29T10:19:16.832Z,11.60
2022-12-29T10:22:04.715Z,11.60
2022-12-29T10:24:38.456Z,11.70
2022-12-29T10:27:13.034Z,11.70
2022-12-29T10:29:46.777Z,11.70
2022-12-29T10:33:11.575Z,11.70
2022-12-29T10:35:41.589Z,11.60
2022-12-29T10:38:48.142Z,11.40
2022-12-29T10:41:47.817Z,11.50
2022-12-29T10:44:18.532Z,11.60
2022-12-29T10:47:17.503Z,11.60
2022-12-29T10:50:03.883Z,11.70
2022-12-29T10:52:31.697Z,11.70
2022-12-29T10:55:39.698Z,11.40
2022-12-29T10:58:13.901Z,11.30
2022-12-29T11:00:40.706Z,11.20
2022-12-29T11:03:51.283Z,11.20
2022-12-29T11:06:26.924Z,11.20
2022-12-29T11:09:11.797Z,11.20
2022-12-29T11:11:52.892Z,11.40
2022-12-29T11:14:30.833Z,11.40
2022-12-29T11:17:05.270Z,11.40
2022-12-29T11:19:39.174Z,11.40
2022-12-29T11:22:26.049Z,11.30
2022-12-29T11:24:55.672Z,11.30
2022-12-29T11:27:36.701Z,11.10
2022-12-29T11:30:31.409Z,11.00
2022-12-29T11:33:07.124Z,11.00
2022-12-29T11:35:44.536Z,10.90
2022-12-29T11:38:23.724Z,10.80
2022-12-29T11:40:57.856Z,10.90
2022-12-29T11:43:36.680Z,10.90
2022-12-29T11:46:07.426Z,10.90
2022-12-29T11:48:41.423Z,10.90
2022-12-29T11:51:12.764Z,11.00
2022-12-29T11:53:57.064Z,11.00
2022-12-29T11:56:42.280Z,11.00
2022-12-29T11:59:35.129Z,11.10
2022-12-29T12:02:14.395Z,11.10
2022-12-29T12:04:43.491Z,11.00
2022-12-29T12:07:18.172Z,10.90
2022-12-29T12:09:59.000Z,10.80
2022-12-29T12:12:42.858Z,10.80
2022-12-29T12:15:28.513Z,10.80
2022-12-29T12:18:34.540Z,10.70
2022-12-29T12:21:26.191Z,10.80
2022-12-29T12:24:31.502Z,10.80
2022-12-29T12:27:25.577Z,10.90
2022-12-29T12:30:19.160Z,10.90
2022-12-29T12:33:06.715Z,10.90
2022-12-29T12:36:04.852Z,11.00
2022-12-29T12:38:41.816Z,11.00
2022-12-29T12:41:33.526Z,11.00
2022-12-29T12:44:18.065Z,10.90
2022-12-29T12:47:16.652Z,10.90
2022-12-29T12:50:17.081Z,10.80
2022-12-29T12:53:25.294Z,10.90
2022-12-29T12:55:53.210Z,10.80
2022-12-29T12:58:40.118Z,10.80
2022-12-29T13:01:19.400Z,10.70
2022-12-29T13:04:27.601Z,10.50
2022-12-29T13:07:10.857Z,10.40
2022-12-29T13:09:56.218Z,10.20
2022-12-29T13:12:51.371Z,10.40
2022-12-29T13:15:37.809Z,10.50
2022-12-29T13:18:44.493Z,10.60
2022-12-29T13:21:30.144Z,10.60
2022-12-29T13:24:33.594Z,10.70
2022-12-29T13:27:14.159Z,10.60
2022-12-29T13:30:11.943Z,10.80
2022-12-29T13:33:21.770Z,11.10
2022-12-29T13:36:06.032Z,11.10
2022-12-29T13:38:55.272Z,11.30
2022-12-29T13:41:34.009Z,11.20
2022-12-29T13:44:07.514Z,11.00
2022-12-29T13:46:47.525Z,11.10
2022-12-29T13:49:43.168Z,11.00
2022-12-29T13:52:23.755Z,11.00
2022-12-29T13:55:03.411Z,10.80
2022-12-29T13:57:53.303Z,10.80
2022-12-29T14:00:24.397Z,10.80
2022-12-29T14:03:31.329Z,10.80
2022-12-29T14:06:22.150Z,10.80
2022-12-29T14:09:03.420Z,10.80
2022-12-29T14:11:42.036Z,10.90
2022-12-29T14:14:26.140Z,11.00
2022-12-29T14:17:21.701Z,11.00
2022-12-29T14:19:53.719Z,11.00
2022-12-29T14:22:32.923Z,10.90
2022-12-29T14:25:41.153Z,11.00
2022-12-29T14:28:31.231Z,11.00
2022-12-29T14:31:19.149Z,10.80
2022-12-29T14:34:08.029Z,10.80
2022-12-29T14:36:37.378Z,10.60
2022-12-29T14:39:31.094Z,10.50
2022-12-29T14:42:25.788Z,10.50
2022-12-29T14:45:17.612Z,10.40
2022-12-29T14:47:46.920Z,10.40
2022-12-29T14:50:49.109Z,10.30
2022-12-29T14:53:47.198Z,10.30
2022-12-29T14:56:17.145Z,10.30
2022-12-29T14:58:54.330Z,10.40
2022-12-29T15:01:34.581Z,10.50
2022-12-29T15:04:33.412Z,10.30
2022-12-29T15:07:19.980Z,10.20
2022-12-29T15:09:57.611Z,10.20
2022-12-29T15:12:46.546Z,10.10
2022-12-29T15:15:28.148Z,10.20
2022-12-29T15:17:55.249Z,10.20
2022-12-29T15:20:30.632Z,10.20
2022-12-29T15:23:01.597Z,10.20
2022-12-29T15:25:28.842Z,10.10
2022-12-29T15:28:05.253Z,9.70
2022-12-29T15:30:33.313Z,9.50
2022-12-29T15:33:03.659Z,9.40
2022-12-29T15:35:37.700Z,9.20
2022-12-29T15:38:17.639Z,9.10
2022-12-29T15:40:54.712Z,9.10
2022-12-29T15:43:33.399Z,9.10
2022-12-29T15:46:04.490Z,9.10
2022-12-29T15:48:31.871Z,9.00
2022-12-29T15:51:01.492Z,9.10
2022-12-29T15:53:34.582Z,9.10
2022-12-29T15:56:11.689Z,9.20
2022-12-29T15:58:45.611Z,9.20
2022-12-29T16:01:30.734Z,9.20
2022-12-29T16:04:05.841Z,9.20
2022-12-29T16:06:55.810Z,9.20
2022-12-29T16:09:36.005Z,9.20
2022-12-29T16:12:16.216Z,9.20
2022-12-29T16:15:06.698Z,9.10
2022-12-29T16:17:47.421Z,9.20
2022-12-29T16:20:38.791Z,9.10
2022-12-29T16:23:27.416Z,9.20
2022-12-29T16:26:04.994Z,9.10
2022-12-29T16:28:42.789Z,9.10
2022-12-29T16:31:34.730Z,9.00
2022-12-29T16:34:29.669Z,8.90
2022-12-29T16:37:34.747Z,8.80
2022-12-29T16:40:31.145Z,8.90
2022-12-29T16:43:04.732Z,9.00
2022-12-29T16:46:18.112Z,9.00
2022-12-29T16:48:56.117Z,9.00
2022-12-29T16:51:52.755Z,9.00
2022-12-29T16:54:25.495Z,9.10
2022-12-29T16:56:54.121Z,9.10
2022-12-29T16:59:54.089Z,9.00
2022-12-29T17:02:30.370Z,9.00
2022-12-29T17:04:57.346Z,9.00
2022-12-29T17:07:43.526Z,9.00
2022-12-29T17:10:10.988Z,8.80
2022-12-29T17:12:43.642Z,8.70
2022-12-29T17:15:33.179Z,8.60
2022-12-29T17:18:10.122Z,8.60
2022-12-29T17:20:42.359Z,8.40
2022-12-29T17:23:19.889Z,8.50
2022-12-29T17:26:08.220Z,8.50
2022-12-29T17:28:36.237Z,8.40
2022-12-29T17:31:06.743Z,8.60
2022-12-29T17:33:38.241Z,8.50
2022-12-29T17:36:06.398Z,8.50
2022-12-29T17:38:37.446Z,8.40
2022-12-29T17:41:04.805Z,8.40
2022-12-29T17:43:36.743Z,8.40
2022-12-29T17:46:06.510Z,8.30
2022-12-29T17:48:39.242Z,8.30
2022-12-29T17:51:14.914Z,8.30
2022-12-29T17:53:41.766Z,8.30
2022-12-29T17:56:19.034Z,8.20
2022-12-29T17:58:50.278Z,8.20
2022-12-29T18:01:21.623Z,8.20
2022-12-29T18:03:49.753Z,8.20
2022-12-29T18:06:16.944Z,8.30
2022-12-29T18:08:44.829Z,8.40
2022-12-29T18:11:24.753Z,8.30
2022-12-29T18:13:52.692Z,8.40
2022-12-29T18:16:21.162Z,8.30
2022-12-29T18:18:49.076Z,8.30
2022-12-29T18:21:19.359Z,8.30
2022-12-29T18:23:46.396Z,8.30
2022-12-29T18:26:28.889Z,8.40
2022-12-29T18:28:56.596Z,8.40
2022-12-29T18:31:27.860Z,8.50
2022-12-29T18:33:57.726Z,8.50
2022-12-29T18:36:25.747Z,8.50
2022-12-29T18:38:54.489Z,8.40
2022-12-29T18:41:23.778Z,8.40
2022-12-29T18:43:51.547Z,8.40
2022-12-29T18:46:23.423Z,8.30
2022-12-29T18:48:53.380Z,8.30
2022-12-29T18:51:24.931Z,8.20
2022-12-29T18:53:54.316Z,8.10
2022-12-29T18:56:22.637Z,8.00
2022-12-29T18:58:53.562Z,8.10
2022-12-29T19:01:24.516Z,8.00
2022-12-29T19:03:52.972Z,8.00
2022-12-29T19:06:21.146Z,7.90
2022-12-29T19:08:53.693Z,8.00
2022-12-29T19:11:20.470Z,8.10
2022-12-29T19:13:47.266Z,8.00
2022-12-29T19:16:18.678Z,8.00
2022-12-29T19:18:50.893Z,8.10
2022-12-29T19:21:22.553Z,8.10
2022-12-29T19:23:49.835Z,8.20
2022-12-29T19:26:35.958Z,8.30
2022-12-29T19:29:04.243Z,8.50
2022-12-29T19:31:31.267Z,8.50
2022-12-29T19:33:58.143Z,8.60
2022-12-29T19:36:25.350Z,8.60
2022-12-29T19:38:52.247Z,8.60
2022-12-29T19:41:21.278Z,8.60
2022-12-29T19:43:48.444Z,8.40
2022-12-29T19:46:19.564Z,8.40
2022-12-29T19:48:58.944Z,8.40
2022-12-29T19:51:29.078Z,8.30
2022-12-29T19:54:01.911Z,8.40
2022-12-29T19:56:34.365Z,8.40
2022-12-29T19:59:21.056Z,8.50
2022-12-29T20:01:50.357Z,8.50
2022-12-29T20:04:31.250Z,8.50
2022-12-29T20:06:59.278Z,8.50
2022-12-29T20:09:26.026Z,8.50
2022-12-29T20:11:55.039Z,8.40
2022-12-29T20:14:28.205Z,8.30
2022-12-29T20:17:10.861Z,8.30
2022-12-29T20:19:40.720Z,8.20
2022-12-29T20:22:12.996Z,8.20
2022-12-29T20:24:48.248Z,8.10
2022-12-29T20:27:16.741Z,8.00
2022-12-29T20:29:46.198Z,8.00
2022-12-29T20:32:20.265Z,8.00
2022-12-29T20:34:49.302Z,8.00
2022-12-29T20:37:16.551Z,7.90
2022-12-29T20:39:43.668Z,7.90
2022-12-29T20:42:12.461Z,7.80
2022-12-29T20:44:46.151Z,7.90
2022-12-29T20:47:16.482Z,7.80
2022-12-29T20:49:43.423Z,7.90
2022-12-29T20:52:11.448Z,7.80
2022-12-29T20:54:40.045Z,7.80
2022-12-29T20:57:10.646Z,7.80
2022-12-29T20:59:37.596Z,7.80
2022-12-29T21:02:06.862Z,7.70
2022-12-29T21:05:22.017Z,7.70
2022-12-29T21:07:36.187Z,7.70
2022-12-29T21:10:02.929Z,7.70
2022-12-29T21:12:30.685Z,7.60
2022-12-29T21:15:07.877Z,7.60
2022-12-29T21:17:35.001Z,7.60
2022-12-29T21:20:08.148Z,7.60
2022-12-29T21:22:34.826Z,7.60
2022-12-29T21:25:06.222Z,7.60
2022-12-29T21:27:33.387Z,7.70
2022-12-29T21:30:04.011Z,7.60
2022-12-29T21:32:32.884Z,7.60
2022-12-29T21:35:06.190Z,7.50
2022-12-29T21:37:33.745Z,7.50
2022-12-29T21:40:00.596Z,7.50
2022-12-29T21:42:28.621Z,7.50
2022-12-29T21:45:19.865Z,7.50
2022-12-29T21:48:13.910Z,7.50
2022-12-29T21:51:07.239Z,7.50
2022-12-29T21:53:42.631Z,7.60
2022-12-29T21:56:15.644Z,7.50
2022-12-29T21:59:07.580Z,7.40
2022-12-29T22:01:56.983Z,7.50
2022-12-29T22:04:48.353Z,7.40
2022-12-29T22:07:33.820Z,7.40
2022-12-29T22:10:25.461Z,7.30
2022-12-29T22:13:00.940Z,7.40
2022-12-29T22:15:34.417Z,7.40
2022-12-29T22:18:07.494Z,7.30
2022-12-29T22:20:36.427Z,7.30
2022-12-29T22:23:07.292Z,7.30
2022-12-29T22:25:39.234Z,7.30
2022-12-29T22:28:06.244Z,7.20
2022-12-29T22:30:34.190Z,7.20
2022-12-29T22:33:03.255Z,7.30
2022-12-29T22:35:30.430Z,7.30
2022-12-29T22:37:57.313Z,7.40
2022-12-29T22:40:27.373Z,7.40
2022-12-29T22:42:55.105Z,7.30
2022-12-29T22:45:23.850Z,7.40
2022-12-29T22:47:51.684Z,7.30
2022-12-29T22:50:18.429Z,7.30
2022-12-29T22:52:46.133Z,7.30
2022-12-29T22:55:12.849Z,7.30
2022-12-29T22:57:41.890Z,7.30
2022-12-29T23:00:10.699Z,7.30
2022-12-29T23:02:37.669Z,7.30
2022-12-29T23:05:06.116Z,7.30
2022-12-29T23:07:35.085Z,7.30
2022-12-29T23:10:04.750Z,7.20
2022-12-29T23:12:34.888Z,7.20
2022-12-29T23:15:01.955Z,7.10
2022-12-29T23:17:31.817Z,7.20
2022-12-29T23:20:01.765Z,7.20
2022-12-29T23:22:34.435Z,7.20
2022-12-29T23:25:08.425Z,7.20
2022-12-29T23:27:38.456Z,7.20
2022-12-29T23:30:11.448Z,7.20
2022-12-29T23:32:38.273Z,7.10
2022-12-29T23:35:06.799Z,7.10
2022-12-29T23:37:36.835Z,7.20
2022-12-29T23:40:05.059Z,7.10
2022-12-29T23:42:31.789Z,7.10
2022-12-29T23:44:59.246Z,7.10
2022-12-29T23:47:26.267Z,7.10
2022-12-29T23:49:59.067Z,7.10
2022-12-29T23:52:26.967Z,7.10
2022-12-29T23:54:56.016Z,7.10
2022-12-29T23:57:23.089Z,7.10
2022-12-29T23:59:50.922Z,7.20
